Terminal Aerodrome Forecast
Issued by NWS

Home | Current Version | Previous Version | Graphics & Text | Print | Product List | Glossary On
Versions: 1 2 3 4 5 6 7 8 9 10 11 12 13 14 15 16 17 18 19 20 21 22 23 24 25 26 27 28 29 30
125
FTUS43 KLOT 211953 AAA
TAFDPA
TAF AMD
KDPA 211953Z 2120/2218 VRB06KT 6SM BR SCT100 BKN150
     FM212200 18008KT P6SM SCT120 BKN250
     FM220500 20008KT P6SM VCTS BKN050CB
     FM220700 21009KT 4SM TSRA OVC035CB
      TEMPO 2207/2209 2SM TSRA OVC015CB
     FM221000 25008KT 6SM -SHRA OVC020
     FM221600 31012G18KT P6SM SCT035=

USA.gov is the U.S. government's official web portal to all federal, state and local government web resources and services.